sensor_id;sensor_type;location;lat;lon;timestamp;P1;durP1;ratioP1;P2;durP2;ratioP2
1955;SDS011;978;48.314;11.562;2023-07-30T00:01:55;11.40;;;1.70;;
1955;SDS011;978;48.314;11.562;2023-07-30T00:04:23;10.30;;;1.00;;
1955;SDS011;978;48.314;11.562;2023-07-30T00:06:51;10.30;;;1.30;;
1955;SDS011;978;48.314;11.562;2023-07-30T00:09:19;10.80;;;1.60;;
1955;SDS011;978;48.314;11.562;2023-07-30T00:11:46;11.00;;;2.03;;
1955;SDS011;978;48.314;11.562;2023-07-30T00:14:12;10.93;;;1.73;;
1955;SDS011;978;48.314;11.562;2023-07-30T00:16:39;9.73;;;1.07;;
1955;SDS011;978;48.314;11.562;2023-07-30T00:19:06;10.57;;;1.20;;
1955;SDS011;978;48.314;11.562;2023-07-30T00:21:33;10.10;;;1.20;;
1955;SDS011;978;48.314;11.562;2023-07-30T00:24:01;10.43;;;1.27;;
1955;SDS011;978;48.314;11.562;2023-07-30T00:26:28;10.30;;;1.07;;
1955;SDS011;978;48.314;11.562;2023-07-30T00:28:55;10.40;;;1.30;;
1955;SDS011;978;48.314;11.562;2023-07-30T00:31:24;10.30;;;1.00;;
1955;SDS011;978;48.314;11.562;2023-07-30T00:33:53;10.63;;;1.67;;
1955;SDS011;978;48.314;11.562;2023-07-30T00:36:19;10.03;;;1.13;;
1955;SDS011;978;48.314;11.562;2023-07-30T00:38:46;10.10;;;1.30;;
1955;SDS011;978;48.314;11.562;2023-07-30T00:41:14;10.20;;;1.07;;
1955;SDS011;978;48.314;11.562;2023-07-30T00:43:42;10.07;;;1.20;;
1955;SDS011;978;48.314;11.562;2023-07-30T00:46:10;9.97;;;1.20;;
1955;SDS011;978;48.314;11.562;2023-07-30T00:48:37;10.50;;;1.60;;
1955;SDS011;978;48.314;11.562;2023-07-30T00:51:06;9.90;;;1.10;;
1955;SDS011;978;48.314;11.562;2023-07-30T00:53:38;9.80;;;1.20;;
1955;SDS011;978;48.314;11.562;2023-07-30T00:56:05;10.67;;;1.57;;
1955;SDS011;978;48.314;11.562;2023-07-30T00:58:33;10.30;;;1.30;;
1955;SDS011;978;48.314;11.562;2023-07-30T01:01:01;9.80;;;1.47;;
1955;SDS011;978;48.314;11.562;2023-07-30T01:03:30;9.87;;;1.20;;
1955;SDS011;978;48.314;11.562;2023-07-30T01:05:58;10.00;;;1.57;;
1955;SDS011;978;48.314;11.562;2023-07-30T01:08:25;9.90;;;1.07;;
1955;SDS011;978;48.314;11.562;2023-07-30T01:10:52;10.07;;;1.00;;
1955;SDS011;978;48.314;11.562;2023-07-30T01:13:20;10.20;;;1.33;;
1955;SDS011;978;48.314;11.562;2023-07-30T01:15:51;10.10;;;1.20;;
1955;SDS011;978;48.314;11.562;2023-07-30T01:18:18;9.83;;;1.20;;
1955;SDS011;978;48.314;11.562;2023-07-30T01:20:45;10.00;;;1.00;;
1955;SDS011;978;48.314;11.562;2023-07-30T01:23:13;10.10;;;1.20;;
1955;SDS011;978;48.314;11.562;2023-07-30T01:25:39;10.00;;;1.20;;
1955;SDS011;978;48.314;11.562;2023-07-30T01:28:09;10.00;;;1.10;;
1955;SDS011;978;48.314;11.562;2023-07-30T01:30:41;9.90;;;1.10;;
1955;SDS011;978;48.314;11.562;2023-07-30T01:33:11;11.17;;;1.97;;
1955;SDS011;978;48.314;11.562;2023-07-30T01:35:38;10.30;;;1.53;;
1955;SDS011;978;48.314;11.562;2023-07-30T01:38:07;9.80;;;1.23;;
1955;SDS011;978;48.314;11.562;2023-07-30T01:40:36;9.77;;;1.03;;
1955;SDS011;978;48.314;11.562;2023-07-30T01:43:03;9.70;;;1.10;;
1955;SDS011;978;48.314;11.562;2023-07-30T01:45:30;10.20;;;1.47;;
1955;SDS011;978;48.314;11.562;2023-07-30T01:47:59;10.80;;;1.10;;
1955;SDS011;978;48.314;11.562;2023-07-30T01:50:26;10.00;;;1.40;;
1955;SDS011;978;48.314;11.562;2023-07-30T01:52:53;9.80;;;1.30;;
1955;SDS011;978;48.314;11.562;2023-07-30T01:55:19;9.57;;;0.90;;
1955;SDS011;978;48.314;11.562;2023-07-30T01:57:47;9.60;;;0.90;;
1955;SDS011;978;48.314;11.562;2023-07-30T02:00:14;9.83;;;1.10;;
1955;SDS011;978;48.314;11.562;2023-07-30T02:02:41;9.73;;;1.13;;
1955;SDS011;978;48.314;11.562;2023-07-30T02:05:09;10.10;;;1.00;;
1955;SDS011;978;48.314;11.562;2023-07-30T02:07:36;9.60;;;1.00;;
1955;SDS011;978;48.314;11.562;2023-07-30T02:10:04;9.60;;;1.10;;
1955;SDS011;978;48.314;11.562;2023-07-30T02:12:31;9.67;;;0.97;;
1955;SDS011;978;48.314;11.562;2023-07-30T02:15:00;9.53;;;1.23;;
1955;SDS011;978;48.314;11.562;2023-07-30T02:17:27;9.90;;;1.27;;
1955;SDS011;978;48.314;11.562;2023-07-30T02:19:54;9.50;;;0.90;;
1955;SDS011;978;48.314;11.562;2023-07-30T02:22:21;9.83;;;1.30;;
1955;SDS011;978;48.314;11.562;2023-07-30T02:24:48;9.67;;;1.13;;
1955;SDS011;978;48.314;11.562;2023-07-30T02:27:16;9.43;;;1.20;;
1955;SDS011;978;48.314;11.562;2023-07-30T02:29:43;9.80;;;1.20;;
1955;SDS011;978;48.314;11.562;2023-07-30T02:32:11;9.77;;;1.00;;
1955;SDS011;978;48.314;11.562;2023-07-30T02:34:37;9.70;;;1.30;;
1955;SDS011;978;48.314;11.562;2023-07-30T02:37:05;10.40;;;1.90;;
1955;SDS011;978;48.314;11.562;2023-07-30T02:39:32;9.40;;;0.97;;
1955;SDS011;978;48.314;11.562;2023-07-30T02:41:59;9.60;;;1.10;;
1955;SDS011;978;48.314;11.562;2023-07-30T02:44:26;9.60;;;1.00;;
1955;SDS011;978;48.314;11.562;2023-07-30T02:46:54;10.00;;;1.17;;
1955;SDS011;978;48.314;11.562;2023-07-30T02:49:22;9.43;;;0.90;;
1955;SDS011;978;48.314;11.562;2023-07-30T02:51:49;9.80;;;1.30;;
1955;SDS011;978;48.314;11.562;2023-07-30T02:54:16;9.57;;;1.20;;
1955;SDS011;978;48.314;11.562;2023-07-30T02:56:46;9.83;;;0.80;;
1955;SDS011;978;48.314;11.562;2023-07-30T02:59:13;9.70;;;1.00;;
1955;SDS011;978;48.314;11.562;2023-07-30T03:01:39;9.70;;;1.10;;
1955;SDS011;978;48.314;11.562;2023-07-30T03:04:06;9.77;;;0.90;;
1955;SDS011;978;48.314;11.562;2023-07-30T03:06:34;9.83;;;1.00;;
1955;SDS011;978;48.314;11.562;2023-07-30T03:09:01;9.53;;;0.90;;
1955;SDS011;978;48.314;11.562;2023-07-30T03:11:28;9.40;;;1.00;;
1955;SDS011;978;48.314;11.562;2023-07-30T03:13:55;9.77;;;1.23;;
1955;SDS011;978;48.314;11.562;2023-07-30T03:16:22;9.70;;;0.90;;
1955;SDS011;978;48.314;11.562;2023-07-30T03:18:49;9.87;;;1.17;;
1955;SDS011;978;48.314;11.562;2023-07-30T03:21:15;9.63;;;1.23;;
1955;SDS011;978;48.314;11.562;2023-07-30T03:23:44;9.73;;;1.27;;
1955;SDS011;978;48.314;11.562;2023-07-30T03:26:13;9.80;;;1.10;;
1955;SDS011;978;48.314;11.562;2023-07-30T03:28:40;10.00;;;1.53;;
1955;SDS011;978;48.314;11.562;2023-07-30T03:31:06;9.73;;;1.23;;
1955;SDS011;978;48.314;11.562;2023-07-30T03:33:34;9.73;;;1.10;;
1955;SDS011;978;48.314;11.562;2023-07-30T03:36:01;9.63;;;1.20;;
1955;SDS011;978;48.314;11.562;2023-07-30T03:38:28;9.63;;;1.00;;
1955;SDS011;978;48.314;11.562;2023-07-30T03:40:56;9.73;;;1.20;;
1955;SDS011;978;48.314;11.562;2023-07-30T03:43:24;9.80;;;0.90;;
1955;SDS011;978;48.314;11.562;2023-07-30T03:45:50;9.53;;;1.30;;
1955;SDS011;978;48.314;11.562;2023-07-30T03:48:18;9.50;;;1.07;;
1955;SDS011;978;48.314;11.562;2023-07-30T03:50:46;9.77;;;1.37;;
1955;SDS011;978;48.314;11.562;2023-07-30T03:53:13;9.90;;;1.13;;
1955;SDS011;978;48.314;11.562;2023-07-30T03:55:40;9.80;;;1.10;;
1955;SDS011;978;48.314;11.562;2023-07-30T03:58:11;9.70;;;1.00;;
1955;SDS011;978;48.314;11.562;2023-07-30T04:00:37;9.90;;;1.10;;
1955;SDS011;978;48.314;11.562;2023-07-30T04:03:04;10.30;;;1.30;;
1955;SDS011;978;48.314;11.562;2023-07-30T04:05:31;9.47;;;1.03;;
1955;SDS011;978;48.314;11.562;2023-07-30T04:07:59;9.60;;;1.27;;
1955;SDS011;978;48.314;11.562;2023-07-30T04:10:25;9.33;;;1.00;;
1955;SDS011;978;48.314;11.562;2023-07-30T04:12:52;9.60;;;1.00;;
1955;SDS011;978;48.314;11.562;2023-07-30T04:15:20;9.70;;;1.07;;
1955;SDS011;978;48.314;11.562;2023-07-30T04:17:47;9.60;;;0.87;;
1955;SDS011;978;48.314;11.562;2023-07-30T04:20:14;9.90;;;1.13;;
1955;SDS011;978;48.314;11.562;2023-07-30T04:22:41;9.67;;;1.30;;
1955;SDS011;978;48.314;11.562;2023-07-30T04:25:08;9.70;;;1.23;;
1955;SDS011;978;48.314;11.562;2023-07-30T04:27:37;9.73;;;1.10;;
1955;SDS011;978;48.314;11.562;2023-07-30T04:30:05;10.10;;;1.30;;
1955;SDS011;978;48.314;11.562;2023-07-30T04:32:36;9.40;;;1.03;;
1955;SDS011;978;48.314;11.562;2023-07-30T04:35:05;9.83;;;1.07;;
1955;SDS011;978;48.314;11.562;2023-07-30T04:37:33;9.70;;;0.97;;
1955;SDS011;978;48.314;11.562;2023-07-30T04:40:00;9.60;;;1.10;;
1955;SDS011;978;48.314;11.562;2023-07-30T04:42:27;9.80;;;1.20;;
1955;SDS011;978;48.314;11.562;2023-07-30T04:44:54;9.50;;;0.90;;
1955;SDS011;978;48.314;11.562;2023-07-30T04:47:21;9.80;;;1.10;;
1955;SDS011;978;48.314;11.562;2023-07-30T04:49:49;9.50;;;1.13;;
1955;SDS011;978;48.314;11.562;2023-07-30T04:52:15;9.50;;;1.10;;
1955;SDS011;978;48.314;11.562;2023-07-30T04:54:42;9.80;;;1.20;;
1955;SDS011;978;48.314;11.562;2023-07-30T04:57:11;9.63;;;0.90;;
1955;SDS011;978;48.314;11.562;2023-07-30T04:59:38;9.83;;;1.00;;
1955;SDS011;978;48.314;11.562;2023-07-30T05:02:05;9.60;;;0.97;;
1955;SDS011;978;48.314;11.562;2023-07-30T05:04:32;9.80;;;0.87;;
1955;SDS011;978;48.314;11.562;2023-07-30T05:07:00;9.60;;;1.50;;
1955;SDS011;978;48.314;11.562;2023-07-30T05:09:27;9.50;;;1.00;;
1955;SDS011;978;48.314;11.562;2023-07-30T05:11:53;9.80;;;1.20;;
1955;SDS011;978;48.314;11.562;2023-07-30T05:14:20;9.70;;;0.97;;
1955;SDS011;978;48.314;11.562;2023-07-30T05:16:48;9.83;;;1.20;;
1955;SDS011;978;48.314;11.562;2023-07-30T05:19:15;9.80;;;1.30;;
1955;SDS011;978;48.314;11.562;2023-07-30T05:21:43;9.73;;;1.20;;
1955;SDS011;978;48.314;11.562;2023-07-30T05:24:11;10.10;;;1.50;;
1955;SDS011;978;48.314;11.562;2023-07-30T05:26:39;9.60;;;1.10;;
1955;SDS011;978;48.314;11.562;2023-07-30T05:29:06;9.87;;;1.00;;
1955;SDS011;978;48.314;11.562;2023-07-30T05:31:34;9.73;;;1.03;;
1955;SDS011;978;48.314;11.562;2023-07-30T05:34:01;9.70;;;1.00;;
1955;SDS011;978;48.314;11.562;2023-07-30T05:36:28;9.50;;;1.00;;
1955;SDS011;978;48.314;11.562;2023-07-30T05:38:54;9.63;;;0.90;;
1955;SDS011;978;48.314;11.562;2023-07-30T05:41:22;9.47;;;1.00;;
1955;SDS011;978;48.314;11.562;2023-07-30T05:43:49;9.97;;;1.20;;
1955;SDS011;978;48.314;11.562;2023-07-30T05:46:16;9.30;;;1.00;;
1955;SDS011;978;48.314;11.562;2023-07-30T05:48:44;9.53;;;0.87;;
1955;SDS011;978;48.314;11.562;2023-07-30T05:51:11;9.67;;;1.00;;
1955;SDS011;978;48.314;11.562;2023-07-30T05:53:38;9.70;;;1.20;;
1955;SDS011;978;48.314;11.562;2023-07-30T05:56:05;9.67;;;1.10;;
1955;SDS011;978;48.314;11.562;2023-07-30T05:58:34;9.90;;;1.50;;
1955;SDS011;978;48.314;11.562;2023-07-30T06:01:01;10.27;;;1.87;;
1955;SDS011;978;48.314;11.562;2023-07-30T06:03:28;9.50;;;1.10;;
1955;SDS011;978;48.314;11.562;2023-07-30T06:05:54;11.33;;;2.00;;
1955;SDS011;978;48.314;11.562;2023-07-30T06:08:21;9.70;;;1.10;;
1955;SDS011;978;48.314;11.562;2023-07-30T06:10:48;10.57;;;1.50;;
1955;SDS011;978;48.314;11.562;2023-07-30T06:13:15;10.20;;;1.57;;
1955;SDS011;978;48.314;11.562;2023-07-30T06:15:43;9.90;;;1.30;;
1955;SDS011;978;48.314;11.562;2023-07-30T06:18:10;10.00;;;1.27;;
1955;SDS011;978;48.314;11.562;2023-07-30T06:20:37;10.13;;;1.27;;
1955;SDS011;978;48.314;11.562;2023-07-30T06:23:03;9.90;;;1.30;;
1955;SDS011;978;48.314;11.562;2023-07-30T06:25:30;10.63;;;2.20;;
1955;SDS011;978;48.314;11.562;2023-07-30T06:27:57;10.67;;;1.73;;
1955;SDS011;978;48.314;11.562;2023-07-30T06:30:24;10.17;;;1.30;;
1955;SDS011;978;48.314;11.562;2023-07-30T06:32:52;10.40;;;1.90;;
1955;SDS011;978;48.314;11.562;2023-07-30T06:35:19;10.77;;;2.10;;
1955;SDS011;978;48.314;11.562;2023-07-30T06:37:47;10.30;;;1.47;;
1955;SDS011;978;48.314;11.562;2023-07-30T06:40:14;10.10;;;1.80;;
1955;SDS011;978;48.314;11.562;2023-07-30T06:42:43;11.50;;;2.87;;
1955;SDS011;978;48.314;11.562;2023-07-30T06:45:11;10.60;;;1.60;;
1955;SDS011;978;48.314;11.562;2023-07-30T06:47:38;10.80;;;1.50;;
1955;SDS011;978;48.314;11.562;2023-07-30T06:50:06;10.47;;;1.30;;
1955;SDS011;978;48.314;11.562;2023-07-30T06:52:34;11.47;;;1.60;;
1955;SDS011;978;48.314;11.562;2023-07-30T06:55:01;10.43;;;1.33;;
1955;SDS011;978;48.314;11.562;2023-07-30T06:57:28;10.50;;;1.67;;
1955;SDS011;978;48.314;11.562;2023-07-30T06:59:55;10.80;;;1.93;;
1955;SDS011;978;48.314;11.562;2023-07-30T07:02:24;10.40;;;1.40;;
1955;SDS011;978;48.314;11.562;2023-07-30T07:04:53;10.60;;;1.63;;
1955;SDS011;978;48.314;11.562;2023-07-30T07:07:24;10.00;;;1.43;;
1955;SDS011;978;48.314;11.562;2023-07-30T07:09:51;10.33;;;1.30;;
1955;SDS011;978;48.314;11.562;2023-07-30T07:12:18;10.20;;;1.50;;
1955;SDS011;978;48.314;11.562;2023-07-30T07:14:44;10.67;;;1.20;;
1955;SDS011;978;48.314;11.562;2023-07-30T07:17:11;12.20;;;2.27;;
1955;SDS011;978;48.314;11.562;2023-07-30T07:19:40;10.07;;;1.10;;
1955;SDS011;978;48.314;11.562;2023-07-30T07:22:07;10.10;;;1.30;;
1955;SDS011;978;48.314;11.562;2023-07-30T07:24:36;10.23;;;1.30;;
1955;SDS011;978;48.314;11.562;2023-07-30T07:27:03;10.10;;;1.10;;
1955;SDS011;978;48.314;11.562;2023-07-30T07:29:30;10.13;;;1.40;;
1955;SDS011;978;48.314;11.562;2023-07-30T07:31:57;10.57;;;2.00;;
1955;SDS011;978;48.314;11.562;2023-07-30T07:34:24;10.20;;;1.30;;
1955;SDS011;978;48.314;11.562;2023-07-30T07:36:50;10.27;;;1.13;;
1955;SDS011;978;48.314;11.562;2023-07-30T07:39:17;10.27;;;1.40;;
1955;SDS011;978;48.314;11.562;2023-07-30T07:41:45;10.20;;;1.50;;
1955;SDS011;978;48.314;11.562;2023-07-30T07:44:13;10.13;;;1.30;;
1955;SDS011;978;48.314;11.562;2023-07-30T07:46:44;9.93;;;1.30;;
1955;SDS011;978;48.314;11.562;2023-07-30T07:49:10;10.10;;;1.50;;
1955;SDS011;978;48.314;11.562;2023-07-30T07:51:39;9.90;;;1.30;;
1955;SDS011;978;48.314;11.562;2023-07-30T07:54:06;11.30;;;2.03;;
1955;SDS011;978;48.314;11.562;2023-07-30T07:56:33;10.40;;;1.57;;
1955;SDS011;978;48.314;11.562;2023-07-30T07:59:01;9.90;;;1.43;;
1955;SDS011;978;48.314;11.562;2023-07-30T08:01:27;10.40;;;1.20;;
1955;SDS011;978;48.314;11.562;2023-07-30T08:03:55;10.10;;;1.20;;
1955;SDS011;978;48.314;11.562;2023-07-30T08:06:23;9.50;;;1.03;;
1955;SDS011;978;48.314;11.562;2023-07-30T08:08:50;9.90;;;1.40;;
1955;SDS011;978;48.314;11.562;2023-07-30T08:11:16;10.40;;;1.87;;
1955;SDS011;978;48.314;11.562;2023-07-30T08:13:45;9.90;;;1.70;;
1955;SDS011;978;48.314;11.562;2023-07-30T08:16:13;9.67;;;1.20;;
1955;SDS011;978;48.314;11.562;2023-07-30T08:18:40;10.57;;;1.33;;
1955;SDS011;978;48.314;11.562;2023-07-30T08:21:07;9.60;;;1.10;;
1955;SDS011;978;48.314;11.562;2023-07-30T08:23:34;9.97;;;1.40;;
1955;SDS011;978;48.314;11.562;2023-07-30T08:26:00;9.70;;;1.53;;
1955;SDS011;978;48.314;11.562;2023-07-30T08:28:28;14.20;;;1.70;;
1955;SDS011;978;48.314;11.562;2023-07-30T08:30:59;10.50;;;1.90;;
1955;SDS011;978;48.314;11.562;2023-07-30T08:33:29;10.10;;;1.57;;
1955;SDS011;978;48.314;11.562;2023-07-30T08:35:56;10.43;;;1.47;;
1955;SDS011;978;48.314;11.562;2023-07-30T08:38:23;9.47;;;1.00;;
1955;SDS011;978;48.314;11.562;2023-07-30T08:40:51;9.60;;;1.07;;
1955;SDS011;978;48.314;11.562;2023-07-30T08:43:18;9.40;;;1.23;;
1955;SDS011;978;48.314;11.562;2023-07-30T08:45:45;9.60;;;0.93;;
1955;SDS011;978;48.314;11.562;2023-07-30T08:48:11;9.73;;;1.07;;
1955;SDS011;978;48.314;11.562;2023-07-30T08:50:40;9.33;;;1.00;;
1955;SDS011;978;48.314;11.562;2023-07-30T08:53:07;9.40;;;1.00;;
1955;SDS011;978;48.314;11.562;2023-07-30T08:55:36;9.40;;;1.20;;
1955;SDS011;978;48.314;11.562;2023-07-30T08:58:04;10.03;;;1.73;;
1955;SDS011;978;48.314;11.562;2023-07-30T09:00:34;9.47;;;0.90;;
1955;SDS011;978;48.314;11.562;2023-07-30T09:03:03;9.17;;;1.00;;
1955;SDS011;978;48.314;11.562;2023-07-30T09:05:31;9.47;;;1.13;;
1955;SDS011;978;48.314;11.562;2023-07-30T09:07:59;9.10;;;1.20;;
1955;SDS011;978;48.314;11.562;2023-07-30T09:10:26;9.50;;;1.07;;
1955;SDS011;978;48.314;11.562;2023-07-30T09:12:53;9.70;;;1.50;;
1955;SDS011;978;48.314;11.562;2023-07-30T09:15:28;9.80;;;1.73;;
1955;SDS011;978;48.314;11.562;2023-07-30T09:17:57;10.30;;;1.80;;
1955;SDS011;978;48.314;11.562;2023-07-30T09:20:24;10.57;;;1.87;;
1955;SDS011;978;48.314;11.562;2023-07-30T09:22:51;9.70;;;1.20;;
1955;SDS011;978;48.314;11.562;2023-07-30T09:25:21;10.20;;;1.70;;
1955;SDS011;978;48.314;11.562;2023-07-30T09:27:49;10.27;;;1.40;;
1955;SDS011;978;48.314;11.562;2023-07-30T09:30:21;10.17;;;1.80;;
1955;SDS011;978;48.314;11.562;2023-07-30T09:32:55;10.43;;;1.50;;
1955;SDS011;978;48.314;11.562;2023-07-30T09:35:22;9.83;;;1.10;;
1955;SDS011;978;48.314;11.562;2023-07-30T09:37:58;9.90;;;1.50;;
1955;SDS011;978;48.314;11.562;2023-07-30T09:40:35;11.03;;;2.30;;
1955;SDS011;978;48.314;11.562;2023-07-30T09:43:04;10.93;;;2.50;;
1955;SDS011;978;48.314;11.562;2023-07-30T09:45:32;10.13;;;1.47;;
1955;SDS011;978;48.314;11.562;2023-07-30T09:48:01;10.40;;;1.60;;
1955;SDS011;978;48.314;11.562;2023-07-30T09:50:30;10.10;;;1.40;;
1955;SDS011;978;48.314;11.562;2023-07-30T09:52:58;10.60;;;1.67;;
1955;SDS011;978;48.314;11.562;2023-07-30T09:55:27;11.17;;;1.60;;
1955;SDS011;978;48.314;11.562;2023-07-30T09:57:56;10.10;;;1.17;;
1955;SDS011;978;48.314;11.562;2023-07-30T10:00:23;9.77;;;1.23;;
1955;SDS011;978;48.314;11.562;2023-07-30T10:02:50;9.53;;;0.77;;
1955;SDS011;978;48.314;11.562;2023-07-30T10:05:21;10.30;;;1.57;;
1955;SDS011;978;48.314;11.562;2023-07-30T10:07:57;9.23;;;1.00;;
1955;SDS011;978;48.314;11.562;2023-07-30T10:10:28;10.07;;;1.70;;
1955;SDS011;978;48.314;11.562;2023-07-30T10:12:58;9.73;;;1.50;;
1955;SDS011;978;48.314;11.562;2023-07-30T10:15:28;9.80;;;1.00;;
1955;SDS011;978;48.314;11.562;2023-07-30T10:17:55;9.47;;;1.13;;
1955;SDS011;978;48.314;11.562;2023-07-30T10:20:23;9.70;;;1.43;;
1955;SDS011;978;48.314;11.562;2023-07-30T10:22:52;9.77;;;1.53;;
1955;SDS011;978;48.314;11.562;2023-07-30T10:25:20;8.77;;;0.90;;
1955;SDS011;978;48.314;11.562;2023-07-30T10:27:49;8.20;;;0.80;;
1955;SDS011;978;48.314;11.562;2023-07-30T10:30:19;8.30;;;0.90;;
1955;SDS011;978;48.314;11.562;2023-07-30T10:33:01;9.20;;;1.57;;
1955;SDS011;978;48.314;11.562;2023-07-30T10:35:42;7.70;;;1.00;;
1955;SDS011;978;48.314;11.562;2023-07-30T10:38:17;8.00;;;0.83;;
1955;SDS011;978;48.314;11.562;2023-07-30T10:41:02;7.70;;;0.80;;
1955;SDS011;978;48.314;11.562;2023-07-30T10:43:32;7.97;;;0.90;;
1955;SDS011;978;48.314;11.562;2023-07-30T10:46:02;8.13;;;1.17;;
1955;SDS011;978;48.314;11.562;2023-07-30T10:48:29;7.93;;;1.00;;
1955;SDS011;978;48.314;11.562;2023-07-30T10:51:01;7.80;;;1.00;;
1955;SDS011;978;48.314;11.562;2023-07-30T10:53:29;7.80;;;1.00;;
1955;SDS011;978;48.314;11.562;2023-07-30T10:55:57;8.93;;;1.30;;
1955;SDS011;978;48.314;11.562;2023-07-30T10:58:26;8.00;;;1.00;;
1955;SDS011;978;48.314;11.562;2023-07-30T11:00:54;8.40;;;1.13;;
1955;SDS011;978;48.314;11.562;2023-07-30T11:03:25;8.13;;;0.80;;
1955;SDS011;978;48.314;11.562;2023-07-30T11:05:53;8.07;;;1.03;;
1955;SDS011;978;48.314;11.562;2023-07-30T11:08:21;8.23;;;1.00;;
1955;SDS011;978;48.314;11.562;2023-07-30T11:10:58;8.13;;;0.70;;
1955;SDS011;978;48.314;11.562;2023-07-30T11:13:26;8.10;;;0.77;;
1955;SDS011;978;48.314;11.562;2023-07-30T11:15:53;8.00;;;0.93;;
1955;SDS011;978;48.314;11.562;2023-07-30T11:18:20;10.07;;;1.80;;
1955;SDS011;978;48.314;11.562;2023-07-30T11:20:48;7.77;;;0.90;;
1955;SDS011;978;48.314;11.562;2023-07-30T11:23:17;8.07;;;1.10;;
1955;SDS011;978;48.314;11.562;2023-07-30T11:25:50;8.57;;;0.90;;
1955;SDS011;978;48.314;11.562;2023-07-30T11:28:27;7.97;;;0.80;;
1955;SDS011;978;48.314;11.562;2023-07-30T11:30:58;8.00;;;0.83;;
1955;SDS011;978;48.314;11.562;2023-07-30T11:33:25;8.70;;;1.27;;
1955;SDS011;978;48.314;11.562;2023-07-30T11:35:54;8.20;;;1.10;;
1955;SDS011;978;48.314;11.562;2023-07-30T11:38:21;7.80;;;0.77;;
1955;SDS011;978;48.314;11.562;2023-07-30T11:40:50;7.70;;;0.80;;
1955;SDS011;978;48.314;11.562;2023-07-30T11:43:18;7.73;;;1.27;;
1955;SDS011;978;48.314;11.562;2023-07-30T11:45:45;7.40;;;0.80;;
1955;SDS011;978;48.314;11.562;2023-07-30T11:48:13;7.30;;;0.70;;
1955;SDS011;978;48.314;11.562;2023-07-30T11:50:46;7.00;;;0.70;;
1955;SDS011;978;48.314;11.562;2023-07-30T11:53:16;7.90;;;1.53;;
1955;SDS011;978;48.314;11.562;2023-07-30T11:55:45;7.60;;;1.00;;
1955;SDS011;978;48.314;11.562;2023-07-30T11:58:12;7.43;;;0.70;;
1955;SDS011;978;48.314;11.562;2023-07-30T12:00:41;7.50;;;1.00;;
1955;SDS011;978;48.314;11.562;2023-07-30T12:03:10;7.53;;;0.60;;
1955;SDS011;978;48.314;11.562;2023-07-30T12:05:39;7.50;;;0.70;;
1955;SDS011;978;48.314;11.562;2023-07-30T12:08:12;8.10;;;0.90;;
1955;SDS011;978;48.314;11.562;2023-07-30T12:10:44;7.90;;;0.70;;
1955;SDS011;978;48.314;11.562;2023-07-30T12:13:11;8.40;;;1.30;;
1955;SDS011;978;48.314;11.562;2023-07-30T12:15:42;8.20;;;1.30;;
1955;SDS011;978;48.314;11.562;2023-07-30T12:18:10;7.90;;;0.80;;
1955;SDS011;978;48.314;11.562;2023-07-30T12:20:37;8.20;;;0.97;;
1955;SDS011;978;48.314;11.562;2023-07-30T12:23:04;8.77;;;1.00;;
1955;SDS011;978;48.314;11.562;2023-07-30T12:25:30;8.60;;;1.37;;
1955;SDS011;978;48.314;11.562;2023-07-30T12:28:00;9.17;;;1.73;;
1955;SDS011;978;48.314;11.562;2023-07-30T12:30:28;8.40;;;1.33;;
1955;SDS011;978;48.314;11.562;2023-07-30T12:32:56;8.43;;;1.03;;
1955;SDS011;978;48.314;11.562;2023-07-30T12:35:24;8.00;;;0.83;;
1955;SDS011;978;48.314;11.562;2023-07-30T12:37:51;8.10;;;0.90;;
1955;SDS011;978;48.314;11.562;2023-07-30T12:40:18;8.97;;;1.43;;
1955;SDS011;978;48.314;11.562;2023-07-30T12:42:44;7.87;;;0.87;;
1955;SDS011;978;48.314;11.562;2023-07-30T12:45:15;8.00;;;0.93;;
1955;SDS011;978;48.314;11.562;2023-07-30T12:47:42;8.27;;;1.37;;
1955;SDS011;978;48.314;11.562;2023-07-30T12:50:10;8.87;;;1.23;;
1955;SDS011;978;48.314;11.562;2023-07-30T12:52:37;8.37;;;1.20;;
1955;SDS011;978;48.314;11.562;2023-07-30T12:55:05;8.00;;;0.90;;
1955;SDS011;978;48.314;11.562;2023-07-30T12:57:32;8.13;;;0.80;;
1955;SDS011;978;48.314;11.562;2023-07-30T13:00:01;8.37;;;0.93;;
1955;SDS011;978;48.314;11.562;2023-07-30T13:02:30;8.47;;;1.53;;
1955;SDS011;978;48.314;11.562;2023-07-30T13:04:59;8.13;;;0.80;;
1955;SDS011;978;48.314;11.562;2023-07-30T13:07:29;8.40;;;1.30;;
1955;SDS011;978;48.314;11.562;2023-07-30T13:10:04;8.80;;;1.10;;
1955;SDS011;978;48.314;11.562;2023-07-30T13:12:32;8.23;;;0.93;;
1955;SDS011;978;48.314;11.562;2023-07-30T13:15:02;8.10;;;0.90;;
1955;SDS011;978;48.314;11.562;2023-07-30T13:17:33;8.83;;;1.10;;
1955;SDS011;978;48.314;11.562;2023-07-30T13:20:00;8.50;;;0.80;;
1955;SDS011;978;48.314;11.562;2023-07-30T13:22:27;8.13;;;0.87;;
1955;SDS011;978;48.314;11.562;2023-07-30T13:24:53;8.70;;;1.47;;
1955;SDS011;978;48.314;11.562;2023-07-30T13:27:20;8.00;;;0.70;;
1955;SDS011;978;48.314;11.562;2023-07-30T13:29:48;8.43;;;1.00;;
1955;SDS011;978;48.314;11.562;2023-07-30T13:32:15;8.20;;;1.00;;
1955;SDS011;978;48.314;11.562;2023-07-30T13:34:43;8.20;;;0.80;;
1955;SDS011;978;48.314;11.562;2023-07-30T13:37:10;8.13;;;1.07;;
1955;SDS011;978;48.314;11.562;2023-07-30T13:39:37;7.87;;;0.90;;
1955;SDS011;978;48.314;11.562;2023-07-30T13:42:04;8.20;;;0.90;;
1955;SDS011;978;48.314;11.562;2023-07-30T13:44:31;7.83;;;0.70;;
1955;SDS011;978;48.314;11.562;2023-07-30T13:46:57;8.00;;;1.20;;
1955;SDS011;978;48.314;11.562;2023-07-30T13:49:24;7.63;;;0.73;;
1955;SDS011;978;48.314;11.562;2023-07-30T13:51:54;8.07;;;0.97;;
1955;SDS011;978;48.314;11.562;2023-07-30T13:54:24;7.83;;;0.97;;
1955;SDS011;978;48.314;11.562;2023-07-30T13:56:53;8.10;;;0.80;;
1955;SDS011;978;48.314;11.562;2023-07-30T13:59:20;7.93;;;0.80;;
1955;SDS011;978;48.314;11.562;2023-07-30T14:01:46;8.77;;;1.17;;
1955;SDS011;978;48.314;11.562;2023-07-30T14:04:13;7.80;;;0.60;;
1955;SDS011;978;48.314;11.562;2023-07-30T14:06:42;8.00;;;0.80;;
1955;SDS011;978;48.314;11.562;2023-07-30T14:09:11;8.00;;;1.17;;
1955;SDS011;978;48.314;11.562;2023-07-30T14:11:38;8.07;;;0.83;;
1955;SDS011;978;48.314;11.562;2023-07-30T14:14:09;10.23;;;1.33;;
1955;SDS011;978;48.314;11.562;2023-07-30T14:16:35;8.00;;;0.70;;
1955;SDS011;978;48.314;11.562;2023-07-30T14:19:02;8.07;;;0.80;;
1955;SDS011;978;48.314;11.562;2023-07-30T14:21:32;7.83;;;0.80;;
1955;SDS011;978;48.314;11.562;2023-07-30T14:24:00;8.17;;;0.70;;
1955;SDS011;978;48.314;11.562;2023-07-30T14:26:31;8.10;;;0.70;;
1955;SDS011;978;48.314;11.562;2023-07-30T14:28:58;8.10;;;1.00;;
1955;SDS011;978;48.314;11.562;2023-07-30T14:31:24;7.97;;;0.90;;
1955;SDS011;978;48.314;11.562;2023-07-30T14:33:51;7.90;;;0.70;;
1955;SDS011;978;48.314;11.562;2023-07-30T14:36:18;7.80;;;0.70;;
1955;SDS011;978;48.314;11.562;2023-07-30T14:38:45;7.73;;;1.10;;
1955;SDS011;978;48.314;11.562;2023-07-30T14:41:11;7.97;;;1.17;;
1955;SDS011;978;48.314;11.562;2023-07-30T14:43:39;7.83;;;0.93;;
1955;SDS011;978;48.314;11.562;2023-07-30T14:46:06;7.70;;;1.10;;
1955;SDS011;978;48.314;11.562;2023-07-30T14:48:39;7.87;;;0.70;;
1955;SDS011;978;48.314;11.562;2023-07-30T14:51:05;7.57;;;0.60;;
1955;SDS011;978;48.314;11.562;2023-07-30T14:53:34;7.60;;;0.60;;
1955;SDS011;978;48.314;11.562;2023-07-30T14:56:03;8.20;;;1.00;;
1955;SDS011;978;48.314;11.562;2023-07-30T14:58:30;7.70;;;0.70;;
1955;SDS011;978;48.314;11.562;2023-07-30T15:00:59;8.00;;;1.00;;
1955;SDS011;978;48.314;11.562;2023-07-30T15:03:26;9.03;;;1.83;;
1955;SDS011;978;48.314;11.562;2023-07-30T15:05:54;7.60;;;0.60;;
1955;SDS011;978;48.314;11.562;2023-07-30T15:08:24;7.83;;;0.80;;
1955;SDS011;978;48.314;11.562;2023-07-30T15:10:50;7.47;;;1.13;;
1955;SDS011;978;48.314;11.562;2023-07-30T15:13:17;7.20;;;0.90;;
1955;SDS011;978;48.314;11.562;2023-07-30T15:15:45;7.53;;;1.10;;
1955;SDS011;978;48.314;11.562;2023-07-30T15:18:13;7.40;;;0.90;;